sensor_id;sensor_type;location;lat;lon;timestamp;temperature;humidity
12853;DHT22;6495;51.808;7.478;2023-07-29T00:02:25;20.80;99.90
12853;DHT22;6495;51.808;7.478;2023-07-29T00:04:54;20.80;99.90
12853;DHT22;6495;51.808;7.478;2023-07-29T00:07:22;20.80;99.90
12853;DHT22;6495;51.808;7.478;2023-07-29T00:09:50;20.80;99.90
12853;DHT22;6495;51.808;7.478;2023-07-29T00:12:18;20.80;99.90
12853;DHT22;6495;51.808;7.478;2023-07-29T00:14:48;20.80;99.90
12853;DHT22;6495;51.808;7.478;2023-07-29T00:17:16;20.70;99.90
12853;DHT22;6495;51.808;7.478;2023-07-29T00:19:44;20.70;99.90
12853;DHT22;6495;51.808;7.478;2023-07-29T00:22:12;20.70;99.90
12853;DHT22;6495;51.808;7.478;2023-07-29T00:24:40;20.70;99.90
12853;DHT22;6495;51.808;7.478;2023-07-29T00:27:08;20.60;99.90
12853;DHT22;6495;51.808;7.478;2023-07-29T00:29:36;20.60;99.90
12853;DHT22;6495;51.808;7.478;2023-07-29T00:32:06;20.60;99.90
12853;DHT22;6495;51.808;7.478;2023-07-29T00:34:35;20.60;99.90
12853;DHT22;6495;51.808;7.478;2023-07-29T00:37:03;20.60;99.90
12853;DHT22;6495;51.808;7.478;2023-07-29T00:39:32;20.50;99.90
12853;DHT22;6495;51.808;7.478;2023-07-29T00:42:01;20.50;99.90
12853;DHT22;6495;51.808;7.478;2023-07-29T00:44:29;20.40;99.90
12853;DHT22;6495;51.808;7.478;2023-07-29T00:47:01;20.40;99.90
12853;DHT22;6495;51.808;7.478;2023-07-29T00:49:32;20.40;99.90
12853;DHT22;6495;51.808;7.478;2023-07-29T00:52:02;20.40;99.90
12853;DHT22;6495;51.808;7.478;2023-07-29T00:54:30;20.40;99.90
12853;DHT22;6495;51.808;7.478;2023-07-29T00:56:58;20.40;99.90
12853;DHT22;6495;51.808;7.478;2023-07-29T00:59:27;20.40;99.90
12853;DHT22;6495;51.808;7.478;2023-07-29T01:01:57;20.40;99.90
12853;DHT22;6495;51.808;7.478;2023-07-29T01:04:26;20.30;99.90
12853;DHT22;6495;51.808;7.478;2023-07-29T01:07:03;20.30;99.90
12853;DHT22;6495;51.808;7.478;2023-07-29T01:09:43;20.30;99.90
12853;DHT22;6495;51.808;7.478;2023-07-29T01:12:22;20.30;99.90
12853;DHT22;6495;51.808;7.478;2023-07-29T01:15:01;20.30;99.90
12853;DHT22;6495;51.808;7.478;2023-07-29T01:17:42;20.30;99.90
12853;DHT22;6495;51.808;7.478;2023-07-29T01:20:14;20.30;99.90
12853;DHT22;6495;51.808;7.478;2023-07-29T01:22:45;20.30;99.90
12853;DHT22;6495;51.808;7.478;2023-07-29T01:25:16;20.30;99.90
12853;DHT22;6495;51.808;7.478;2023-07-29T01:27:47;20.20;99.90
12853;DHT22;6495;51.808;7.478;2023-07-29T01:30:18;20.20;99.90
12853;DHT22;6495;51.808;7.478;2023-07-29T01:32:53;20.20;99.90
12853;DHT22;6495;51.808;7.478;2023-07-29T01:35:32;20.20;99.90
12853;DHT22;6495;51.808;7.478;2023-07-29T01:38:06;20.20;99.90
12853;DHT22;6495;51.808;7.478;2023-07-29T01:40:42;20.20;99.90
12853;DHT22;6495;51.808;7.478;2023-07-29T01:43:12;20.20;99.90
12853;DHT22;6495;51.808;7.478;2023-07-29T01:45:40;20.20;99.90
12853;DHT22;6495;51.808;7.478;2023-07-29T01:48:09;20.20;99.90
12853;DHT22;6495;51.808;7.478;2023-07-29T01:50:37;20.20;99.90
12853;DHT22;6495;51.808;7.478;2023-07-29T01:53:05;20.20;99.90
12853;DHT22;6495;51.808;7.478;2023-07-29T01:55:34;20.20;99.90
12853;DHT22;6495;51.808;7.478;2023-07-29T01:58:03;20.20;99.90
12853;DHT22;6495;51.808;7.478;2023-07-29T02:00:34;20.20;99.90
12853;DHT22;6495;51.808;7.478;2023-07-29T02:03:02;20.20;99.90
12853;DHT22;6495;51.808;7.478;2023-07-29T02:05:30;20.20;99.90
12853;DHT22;6495;51.808;7.478;2023-07-29T02:07:59;20.20;99.90
12853;DHT22;6495;51.808;7.478;2023-07-29T02:10:27;20.20;99.90
12853;DHT22;6495;51.808;7.478;2023-07-29T02:12:55;20.20;99.90
12853;DHT22;6495;51.808;7.478;2023-07-29T02:15:25;20.20;99.90
12853;DHT22;6495;51.808;7.478;2023-07-29T02:17:53;20.20;99.90
12853;DHT22;6495;51.808;7.478;2023-07-29T02:20:21;20.10;99.90
12853;DHT22;6495;51.808;7.478;2023-07-29T02:22:50;20.10;99.90
12853;DHT22;6495;51.808;7.478;2023-07-29T02:25:18;20.10;99.90
12853;DHT22;6495;51.808;7.478;2023-07-29T02:27:47;20.10;99.90
12853;DHT22;6495;51.808;7.478;2023-07-29T02:30:15;20.10;99.90
12853;DHT22;6495;51.808;7.478;2023-07-29T02:32:44;20.10;99.90
12853;DHT22;6495;51.808;7.478;2023-07-29T02:35:13;20.10;99.90
12853;DHT22;6495;51.808;7.478;2023-07-29T02:37:41;20.10;99.90
12853;DHT22;6495;51.808;7.478;2023-07-29T02:40:10;20.10;99.90
12853;DHT22;6495;51.808;7.478;2023-07-29T02:42:39;20.10;99.90
12853;DHT22;6495;51.808;7.478;2023-07-29T02:45:08;20.10;99.90
12853;DHT22;6495;51.808;7.478;2023-07-29T02:47:38;20.10;99.90
12853;DHT22;6495;51.808;7.478;2023-07-29T02:50:08;20.10;99.90
12853;DHT22;6495;51.808;7.478;2023-07-29T02:52:37;20.10;99.90
12853;DHT22;6495;51.808;7.478;2023-07-29T02:55:06;20.10;99.90
12853;DHT22;6495;51.808;7.478;2023-07-29T02:57:34;20.10;99.90
12853;DHT22;6495;51.808;7.478;2023-07-29T03:00:05;20.10;99.90
12853;DHT22;6495;51.808;7.478;2023-07-29T03:02:34;20.00;99.90
12853;DHT22;6495;51.808;7.478;2023-07-29T03:05:03;20.00;99.90
12853;DHT22;6495;51.808;7.478;2023-07-29T03:07:33;20.00;99.90
12853;DHT22;6495;51.808;7.478;2023-07-29T03:10:02;20.00;99.90
12853;DHT22;6495;51.808;7.478;2023-07-29T03:12:30;20.00;99.90
12853;DHT22;6495;51.808;7.478;2023-07-29T03:14:58;20.00;99.90
12853;DHT22;6495;51.808;7.478;2023-07-29T03:17:27;20.00;99.90
12853;DHT22;6495;51.808;7.478;2023-07-29T03:19:55;20.00;99.90
12853;DHT22;6495;51.808;7.478;2023-07-29T03:22:24;20.00;99.90
12853;DHT22;6495;51.808;7.478;2023-07-29T03:24:53;20.00;99.90
12853;DHT22;6495;51.808;7.478;2023-07-29T03:27:21;20.00;99.90
12853;DHT22;6495;51.808;7.478;2023-07-29T03:29:49;20.00;99.90
12853;DHT22;6495;51.808;7.478;2023-07-29T03:32:18;20.00;99.90
12853;DHT22;6495;51.808;7.478;2023-07-29T03:34:46;20.00;99.90
12853;DHT22;6495;51.808;7.478;2023-07-29T03:37:14;20.00;99.90
12853;DHT22;6495;51.808;7.478;2023-07-29T03:39:43;19.90;99.90
12853;DHT22;6495;51.808;7.478;2023-07-29T03:42:13;19.90;99.90
12853;DHT22;6495;51.808;7.478;2023-07-29T03:44:41;19.90;99.90
12853;DHT22;6495;51.808;7.478;2023-07-29T03:47:09;19.90;99.90
12853;DHT22;6495;51.808;7.478;2023-07-29T03:49:39;19.90;99.90
12853;DHT22;6495;51.808;7.478;2023-07-29T03:52:07;19.90;99.90
12853;DHT22;6495;51.808;7.478;2023-07-29T03:54:35;19.90;99.90
12853;DHT22;6495;51.808;7.478;2023-07-29T03:57:04;19.90;99.90
12853;DHT22;6495;51.808;7.478;2023-07-29T03:59:34;19.90;99.90
12853;DHT22;6495;51.808;7.478;2023-07-29T04:02:03;19.90;99.90
12853;DHT22;6495;51.808;7.478;2023-07-29T04:04:31;19.90;99.90
12853;DHT22;6495;51.808;7.478;2023-07-29T04:07:00;19.90;99.90
12853;DHT22;6495;51.808;7.478;2023-07-29T04:09:28;19.90;99.90
12853;DHT22;6495;51.808;7.478;2023-07-29T04:11:56;19.90;99.90
12853;DHT22;6495;51.808;7.478;2023-07-29T04:14:24;19.90;99.90
12853;DHT22;6495;51.808;7.478;2023-07-29T04:16:54;19.90;99.90
12853;DHT22;6495;51.808;7.478;2023-07-29T04:19:22;20.00;99.90
12853;DHT22;6495;51.808;7.478;2023-07-29T04:21:50;19.90;99.90
12853;DHT22;6495;51.808;7.478;2023-07-29T04:24:18;20.00;99.90
12853;DHT22;6495;51.808;7.478;2023-07-29T04:26:47;20.00;99.90
12853;DHT22;6495;51.808;7.478;2023-07-29T04:29:15;20.00;99.90
12853;DHT22;6495;51.808;7.478;2023-07-29T04:31:43;20.00;99.90
12853;DHT22;6495;51.808;7.478;2023-07-29T04:34:12;20.00;99.90
12853;DHT22;6495;51.808;7.478;2023-07-29T04:36:40;20.10;99.90
12853;DHT22;6495;51.808;7.478;2023-07-29T04:39:09;20.00;99.90
12853;DHT22;6495;51.808;7.478;2023-07-29T04:41:37;20.10;99.90
12853;DHT22;6495;51.808;7.478;2023-07-29T04:44:05;20.10;99.90
12853;DHT22;6495;51.808;7.478;2023-07-29T04:46:33;20.10;99.90
12853;DHT22;6495;51.808;7.478;2023-07-29T04:49:02;20.10;99.90
12853;DHT22;6495;51.808;7.478;2023-07-29T04:51:31;20.10;99.90
12853;DHT22;6495;51.808;7.478;2023-07-29T04:54:00;20.10;99.90
12853;DHT22;6495;51.808;7.478;2023-07-29T04:56:28;20.10;99.90
12853;DHT22;6495;51.808;7.478;2023-07-29T04:58:56;20.10;99.90
12853;DHT22;6495;51.808;7.478;2023-07-29T05:01:24;20.20;99.90
12853;DHT22;6495;51.808;7.478;2023-07-29T05:03:53;20.20;99.90
12853;DHT22;6495;51.808;7.478;2023-07-29T05:06:21;20.10;99.90
12853;DHT22;6495;51.808;7.478;2023-07-29T05:08:50;20.20;99.90
12853;DHT22;6495;51.808;7.478;2023-07-29T05:11:18;20.20;99.90
12853;DHT22;6495;51.808;7.478;2023-07-29T05:13:47;20.20;99.90
12853;DHT22;6495;51.808;7.478;2023-07-29T05:16:15;20.20;99.90
12853;DHT22;6495;51.808;7.478;2023-07-29T05:18:44;20.20;99.90
12853;DHT22;6495;51.808;7.478;2023-07-29T05:21:12;20.20;99.90
12853;DHT22;6495;51.808;7.478;2023-07-29T05:23:41;20.20;99.90
12853;DHT22;6495;51.808;7.478;2023-07-29T05:26:10;20.20;99.90
12853;DHT22;6495;51.808;7.478;2023-07-29T05:28:38;20.20;99.90
12853;DHT22;6495;51.808;7.478;2023-07-29T05:31:06;20.20;99.90
12853;DHT22;6495;51.808;7.478;2023-07-29T05:33:35;20.20;99.90
12853;DHT22;6495;51.808;7.478;2023-07-29T05:36:05;20.20;99.90
12853;DHT22;6495;51.808;7.478;2023-07-29T05:38:34;20.20;99.90
12853;DHT22;6495;51.808;7.478;2023-07-29T05:41:02;20.20;99.90
12853;DHT22;6495;51.808;7.478;2023-07-29T05:43:32;20.20;99.90
12853;DHT22;6495;51.808;7.478;2023-07-29T05:46:00;20.20;99.90
12853;DHT22;6495;51.808;7.478;2023-07-29T05:48:28;20.20;99.90
12853;DHT22;6495;51.808;7.478;2023-07-29T05:50:56;20.20;99.90
12853;DHT22;6495;51.808;7.478;2023-07-29T05:53:24;20.20;99.90
12853;DHT22;6495;51.808;7.478;2023-07-29T05:55:52;20.20;99.90
12853;DHT22;6495;51.808;7.478;2023-07-29T05:58:21;20.20;99.90
12853;DHT22;6495;51.808;7.478;2023-07-29T06:00:50;20.20;99.90
12853;DHT22;6495;51.808;7.478;2023-07-29T06:03:22;20.20;99.90
12853;DHT22;6495;51.808;7.478;2023-07-29T06:05:51;20.20;99.90
12853;DHT22;6495;51.808;7.478;2023-07-29T06:08:21;20.20;99.90
12853;DHT22;6495;51.808;7.478;2023-07-29T06:10:49;20.30;99.90
12853;DHT22;6495;51.808;7.478;2023-07-29T06:13:17;20.30;99.90
12853;DHT22;6495;51.808;7.478;2023-07-29T06:15:45;20.30;99.90
12853;DHT22;6495;51.808;7.478;2023-07-29T06:18:14;20.30;99.90
12853;DHT22;6495;51.808;7.478;2023-07-29T06:20:43;20.30;99.90
12853;DHT22;6495;51.808;7.478;2023-07-29T06:23:11;20.30;99.90
12853;DHT22;6495;51.808;7.478;2023-07-29T06:25:39;20.30;99.90
12853;DHT22;6495;51.808;7.478;2023-07-29T06:28:09;20.30;99.90
12853;DHT22;6495;51.808;7.478;2023-07-29T06:30:37;20.30;99.90
12853;DHT22;6495;51.808;7.478;2023-07-29T06:33:05;20.30;99.90
12853;DHT22;6495;51.808;7.478;2023-07-29T06:35:35;20.20;99.90
12853;DHT22;6495;51.808;7.478;2023-07-29T06:38:03;20.20;99.90
12853;DHT22;6495;51.808;7.478;2023-07-29T06:40:31;20.20;99.90
12853;DHT22;6495;51.808;7.478;2023-07-29T06:42:59;20.20;99.90
12853;DHT22;6495;51.808;7.478;2023-07-29T06:45:27;20.20;99.90
12853;DHT22;6495;51.808;7.478;2023-07-29T06:47:55;20.20;99.90
12853;DHT22;6495;51.808;7.478;2023-07-29T06:50:24;20.20;99.90
12853;DHT22;6495;51.808;7.478;2023-07-29T06:52:53;20.20;99.90
12853;DHT22;6495;51.808;7.478;2023-07-29T06:55:21;20.20;99.90
12853;DHT22;6495;51.808;7.478;2023-07-29T06:57:49;20.20;99.90
12853;DHT22;6495;51.808;7.478;2023-07-29T07:00:18;20.20;99.90
12853;DHT22;6495;51.808;7.478;2023-07-29T07:02:46;20.20;99.90
12853;DHT22;6495;51.808;7.478;2023-07-29T07:05:14;20.20;99.90
12853;DHT22;6495;51.808;7.478;2023-07-29T07:07:42;20.20;99.90
12853;DHT22;6495;51.808;7.478;2023-07-29T07:10:12;20.20;99.90
12853;DHT22;6495;51.808;7.478;2023-07-29T07:12:41;20.20;99.90
12853;DHT22;6495;51.808;7.478;2023-07-29T07:15:09;20.20;99.90
12853;DHT22;6495;51.808;7.478;2023-07-29T07:17:38;20.20;99.90
12853;DHT22;6495;51.808;7.478;2023-07-29T07:20:07;20.20;99.90
12853;DHT22;6495;51.808;7.478;2023-07-29T07:22:35;20.20;99.90
12853;DHT22;6495;51.808;7.478;2023-07-29T07:25:04;20.30;99.90
12853;DHT22;6495;51.808;7.478;2023-07-29T07:27:36;20.30;99.90
12853;DHT22;6495;51.808;7.478;2023-07-29T07:30:06;20.30;99.90
12853;DHT22;6495;51.808;7.478;2023-07-29T07:32:34;20.30;99.90
12853;DHT22;6495;51.808;7.478;2023-07-29T07:35:03;20.30;99.90
12853;DHT22;6495;51.808;7.478;2023-07-29T07:37:31;20.30;99.90
12853;DHT22;6495;51.808;7.478;2023-07-29T07:39:59;20.30;99.90
12853;DHT22;6495;51.808;7.478;2023-07-29T07:42:28;20.40;99.90
12853;DHT22;6495;51.808;7.478;2023-07-29T07:44:57;20.40;99.90
12853;DHT22;6495;51.808;7.478;2023-07-29T07:47:25;20.40;99.90
12853;DHT22;6495;51.808;7.478;2023-07-29T07:49:53;20.40;99.90
12853;DHT22;6495;51.808;7.478;2023-07-29T07:52:21;20.40;99.90
12853;DHT22;6495;51.808;7.478;2023-07-29T07:54:51;20.50;99.90
12853;DHT22;6495;51.808;7.478;2023-07-29T07:57:21;20.50;99.90
12853;DHT22;6495;51.808;7.478;2023-07-29T07:59:49;20.50;99.90
12853;DHT22;6495;51.808;7.478;2023-07-29T08:02:20;20.60;99.90
12853;DHT22;6495;51.808;7.478;2023-07-29T08:04:49;20.60;99.90
12853;DHT22;6495;51.808;7.478;2023-07-29T08:07:17;20.70;99.90
12853;DHT22;6495;51.808;7.478;2023-07-29T08:09:45;20.80;99.90
12853;DHT22;6495;51.808;7.478;2023-07-29T08:12:13;20.80;99.90
12853;DHT22;6495;51.808;7.478;2023-07-29T08:14:46;20.90;99.90
12853;DHT22;6495;51.808;7.478;2023-07-29T08:17:15;20.90;99.90
12853;DHT22;6495;51.808;7.478;2023-07-29T08:19:44;21.00;99.90
12853;DHT22;6495;51.808;7.478;2023-07-29T08:22:13;21.10;99.90
12853;DHT22;6495;51.808;7.478;2023-07-29T08:24:41;21.10;99.90
12853;DHT22;6495;51.808;7.478;2023-07-29T08:27:09;21.20;99.90
12853;DHT22;6495;51.808;7.478;2023-07-29T08:29:37;21.30;99.90
12853;DHT22;6495;51.808;7.478;2023-07-29T08:32:05;21.30;99.90
12853;DHT22;6495;51.808;7.478;2023-07-29T08:34:34;21.40;99.90
12853;DHT22;6495;51.808;7.478;2023-07-29T08:37:03;21.50;99.90
12853;DHT22;6495;51.808;7.478;2023-07-29T08:39:32;21.60;99.90
12853;DHT22;6495;51.808;7.478;2023-07-29T08:42:02;21.70;99.90
12853;DHT22;6495;51.808;7.478;2023-07-29T08:44:36;21.80;99.90
12853;DHT22;6495;51.808;7.478;2023-07-29T08:47:07;21.90;99.90
12853;DHT22;6495;51.808;7.478;2023-07-29T08:49:36;21.90;99.90
12853;DHT22;6495;51.808;7.478;2023-07-29T08:52:07;22.00;99.90
12853;DHT22;6495;51.808;7.478;2023-07-29T08:54:37;22.10;99.90
12853;DHT22;6495;51.808;7.478;2023-07-29T08:57:06;22.20;99.90
12853;DHT22;6495;51.808;7.478;2023-07-29T08:59:34;22.20;99.90
12853;DHT22;6495;51.808;7.478;2023-07-29T09:02:03;22.30;99.90
12853;DHT22;6495;51.808;7.478;2023-07-29T09:04:31;22.40;99.90
12853;DHT22;6495;51.808;7.478;2023-07-29T09:07:00;22.40;99.90
12853;DHT22;6495;51.808;7.478;2023-07-29T09:09:30;22.50;99.90
12853;DHT22;6495;51.808;7.478;2023-07-29T09:11:59;22.50;99.90
12853;DHT22;6495;51.808;7.478;2023-07-29T09:14:27;22.60;99.90
12853;DHT22;6495;51.808;7.478;2023-07-29T09:16:56;22.60;99.90
12853;DHT22;6495;51.808;7.478;2023-07-29T09:19:25;22.70;99.90
12853;DHT22;6495;51.808;7.478;2023-07-29T09:21:54;22.80;99.90
12853;DHT22;6495;51.808;7.478;2023-07-29T09:24:22;22.80;99.90
12853;DHT22;6495;51.808;7.478;2023-07-29T09:26:52;22.90;99.90
12853;DHT22;6495;51.808;7.478;2023-07-29T09:29:22;23.00;99.90
12853;DHT22;6495;51.808;7.478;2023-07-29T09:31:51;23.00;99.90
12853;DHT22;6495;51.808;7.478;2023-07-29T09:34:19;23.10;99.90
12853;DHT22;6495;51.808;7.478;2023-07-29T09:36:50;23.20;99.90
12853;DHT22;6495;51.808;7.478;2023-07-29T09:39:23;23.30;99.90
12853;DHT22;6495;51.808;7.478;2023-07-29T09:41:52;23.40;99.90
12853;DHT22;6495;51.808;7.478;2023-07-29T09:44:21;23.60;99.90
12853;DHT22;6495;51.808;7.478;2023-07-29T09:46:49;23.60;99.90
12853;DHT22;6495;51.808;7.478;2023-07-29T09:49:18;23.70;99.90
12853;DHT22;6495;51.808;7.478;2023-07-29T09:51:46;23.70;99.90
12853;DHT22;6495;51.808;7.478;2023-07-29T09:54:16;23.80;99.90
12853;DHT22;6495;51.808;7.478;2023-07-29T09:56:45;23.90;99.90
12853;DHT22;6495;51.808;7.478;2023-07-29T09:59:18;23.90;99.90
12853;DHT22;6495;51.808;7.478;2023-07-29T10:01:47;23.90;99.90
12853;DHT22;6495;51.808;7.478;2023-07-29T10:04:16;24.00;99.90
12853;DHT22;6495;51.808;7.478;2023-07-29T10:06:45;24.00;99.90
12853;DHT22;6495;51.808;7.478;2023-07-29T10:09:15;24.10;99.90
12853;DHT22;6495;51.808;7.478;2023-07-29T10:11:43;24.10;99.90
12853;DHT22;6495;51.808;7.478;2023-07-29T10:14:14;24.10;99.90
12853;DHT22;6495;51.808;7.478;2023-07-29T10:16:44;24.10;99.90
12853;DHT22;6495;51.808;7.478;2023-07-29T10:19:14;24.10;99.90
12853;DHT22;6495;51.808;7.478;2023-07-29T10:21:47;24.10;99.90
12853;DHT22;6495;51.808;7.478;2023-07-29T10:24:19;24.00;99.90
12853;DHT22;6495;51.808;7.478;2023-07-29T10:26:57;24.00;99.90
12853;DHT22;6495;51.808;7.478;2023-07-29T10:29:31;24.00;99.90
12853;DHT22;6495;51.808;7.478;2023-07-29T10:32:02;24.00;99.90
12853;DHT22;6495;51.808;7.478;2023-07-29T10:34:32;24.00;99.90
12853;DHT22;6495;51.808;7.478;2023-07-29T10:37:02;24.00;99.90
12853;DHT22;6495;51.808;7.478;2023-07-29T10:39:38;24.00;99.90
12853;DHT22;6495;51.808;7.478;2023-07-29T10:42:07;24.00;99.90
12853;DHT22;6495;51.808;7.478;2023-07-29T10:44:50;24.00;99.90
12853;DHT22;6495;51.808;7.478;2023-07-29T10:47:22;24.10;99.90
12853;DHT22;6495;51.808;7.478;2023-07-29T10:49:53;24.10;99.90
12853;DHT22;6495;51.808;7.478;2023-07-29T10:52:40;24.10;99.90
12853;DHT22;6495;51.808;7.478;2023-07-29T10:55:27;24.20;99.90
12853;DHT22;6495;51.808;7.478;2023-07-29T10:58:08;24.20;99.90
12853;DHT22;6495;51.808;7.478;2023-07-29T11:00:41;24.20;99.90
12853;DHT22;6495;51.808;7.478;2023-07-29T11:03:12;24.30;99.90
12853;DHT22;6495;51.808;7.478;2023-07-29T11:05:47;24.40;99.90
12853;DHT22;6495;51.808;7.478;2023-07-29T11:08:21;24.50;99.90
12853;DHT22;6495;51.808;7.478;2023-07-29T11:11:05;24.60;99.90
12853;DHT22;6495;51.808;7.478;2023-07-29T11:13:35;24.70;99.90
12853;DHT22;6495;51.808;7.478;2023-07-29T11:16:06;24.80;99.90
12853;DHT22;6495;51.808;7.478;2023-07-29T11:18:38;24.80;99.90
12853;DHT22;6495;51.808;7.478;2023-07-29T11:21:09;24.90;99.90
12853;DHT22;6495;51.808;7.478;2023-07-29T11:23:38;25.00;99.90
12853;DHT22;6495;51.808;7.478;2023-07-29T11:26:07;25.10;99.90
12853;DHT22;6495;51.808;7.478;2023-07-29T11:28:38;25.10;99.90
12853;DHT22;6495;51.808;7.478;2023-07-29T11:31:09;25.20;99.90
12853;DHT22;6495;51.808;7.478;2023-07-29T11:33:39;25.30;99.90
12853;DHT22;6495;51.808;7.478;2023-07-29T11:36:17;25.40;99.90
12853;DHT22;6495;51.808;7.478;2023-07-29T11:38:46;25.40;99.90
12853;DHT22;6495;51.808;7.478;2023-07-29T11:41:19;25.40;99.90
12853;DHT22;6495;51.808;7.478;2023-07-29T11:43:48;25.40;99.90
12853;DHT22;6495;51.808;7.478;2023-07-29T11:46:22;25.40;99.90
12853;DHT22;6495;51.808;7.478;2023-07-29T11:48:50;25.40;99.90
12853;DHT22;6495;51.808;7.478;2023-07-29T11:51:22;25.40;99.90
12853;DHT22;6495;51.808;7.478;2023-07-29T11:53:51;25.50;99.90
12853;DHT22;6495;51.808;7.478;2023-07-29T11:56:19;25.50;99.90
12853;DHT22;6495;51.808;7.478;2023-07-29T11:58:48;25.50;99.90
12853;DHT22;6495;51.808;7.478;2023-07-29T12:01:17;25.50;99.90
12853;DHT22;6495;51.808;7.478;2023-07-29T12:03:47;25.50;99.90
12853;DHT22;6495;51.808;7.478;2023-07-29T12:06:16;25.60;99.90
12853;DHT22;6495;51.808;7.478;2023-07-29T12:08:45;25.60;99.90
12853;DHT22;6495;51.808;7.478;2023-07-29T12:11:14;25.70;99.90
12853;DHT22;6495;51.808;7.478;2023-07-29T12:13:42;25.80;99.90
12853;DHT22;6495;51.808;7.478;2023-07-29T12:16:16;25.80;99.90
12853;DHT22;6495;51.808;7.478;2023-07-29T12:18:46;25.80;99.90
12853;DHT22;6495;51.808;7.478;2023-07-29T12:21:15;25.80;99.90
12853;DHT22;6495;51.808;7.478;2023-07-29T12:23:44;25.90;99.90
12853;DHT22;6495;51.808;7.478;2023-07-29T12:26:13;25.80;99.90
12853;DHT22;6495;51.808;7.478;2023-07-29T12:28:46;25.80;99.90
12853;DHT22;6495;51.808;7.478;2023-07-29T12:31:14;25.80;99.90
12853;DHT22;6495;51.808;7.478;2023-07-29T12:33:42;25.90;99.90
12853;DHT22;6495;51.808;7.478;2023-07-29T12:36:12;25.90;99.90
12853;DHT22;6495;51.808;7.478;2023-07-29T12:38:42;25.90;99.90
12853;DHT22;6495;51.808;7.478;2023-07-29T12:41:11;26.00;99.90
12853;DHT22;6495;51.808;7.478;2023-07-29T12:43:39;26.00;99.90
12853;DHT22;6495;51.808;7.478;2023-07-29T12:46:07;26.00;99.90
12853;DHT22;6495;51.808;7.478;2023-07-29T12:48:35;26.00;99.90
12853;DHT22;6495;51.808;7.478;2023-07-29T12:51:03;26.00;99.90
12853;DHT22;6495;51.808;7.478;2023-07-29T12:53:33;26.10;99.90
12853;DHT22;6495;51.808;7.478;2023-07-29T12:56:01;26.10;99.90
12853;DHT22;6495;51.808;7.478;2023-07-29T12:58:29;26.10;99.90
12853;DHT22;6495;51.808;7.478;2023-07-29T13:00:57;26.20;99.90
12853;DHT22;6495;51.808;7.478;2023-07-29T13:03:25;26.10;99.90
12853;DHT22;6495;51.808;7.478;2023-07-29T13:05:54;26.10;99.90
12853;DHT22;6495;51.808;7.478;2023-07-29T13:08:22;26.20;99.90
12853;DHT22;6495;51.808;7.478;2023-07-29T13:10:52;26.10;99.90
12853;DHT22;6495;51.808;7.478;2023-07-29T13:13:20;26.20;99.90
12853;DHT22;6495;51.808;7.478;2023-07-29T13:15:48;26.10;99.90
12853;DHT22;6495;51.808;7.478;2023-07-29T13:18:17;26.20;99.90
12853;DHT22;6495;51.808;7.478;2023-07-29T13:20:45;26.20;99.90
12853;DHT22;6495;51.808;7.478;2023-07-29T13:23:13;26.30;99.90
12853;DHT22;6495;51.808;7.478;2023-07-29T13:25:40;26.30;99.90
12853;DHT22;6495;51.808;7.478;2023-07-29T13:28:10;26.40;99.90
12853;DHT22;6495;51.808;7.478;2023-07-29T13:30:40;26.50;99.90
12853;DHT22;6495;51.808;7.478;2023-07-29T13:33:08;26.50;99.90
12853;DHT22;6495;51.808;7.478;2023-07-29T13:35:37;26.50;99.90
12853;DHT22;6495;51.808;7.478;2023-07-29T13:38:05;26.50;99.90
12853;DHT22;6495;51.808;7.478;2023-07-29T13:40:34;26.50;99.90
12853;DHT22;6495;51.808;7.478;2023-07-29T13:43:04;26.40;99.90
12853;DHT22;6495;51.808;7.478;2023-07-29T13:45:34;26.40;99.90
12853;DHT22;6495;51.808;7.478;2023-07-29T13:48:03;26.50;99.90
12853;DHT22;6495;51.808;7.478;2023-07-29T13:50:32;26.40;99.90
12853;DHT22;6495;51.808;7.478;2023-07-29T13:53:00;26.40;99.90
12853;DHT22;6495;51.808;7.478;2023-07-29T13:55:28;26.40;99.90
12853;DHT22;6495;51.808;7.478;2023-07-29T13:57:56;26.30;99.90
12853;DHT22;6495;51.808;7.478;2023-07-29T14:00:25;26.20;99.90
12853;DHT22;6495;51.808;7.478;2023-07-29T14:02:55;26.20;99.90
12853;DHT22;6495;51.808;7.478;2023-07-29T14:05:23;26.10;99.90
12853;DHT22;6495;51.808;7.478;2023-07-29T14:07:51;26.00;99.90
12853;DHT22;6495;51.808;7.478;2023-07-29T14:10:19;25.90;99.90
12853;DHT22;6495;51.808;7.478;2023-07-29T14:12:47;25.90;99.90
12853;DHT22;6495;51.808;7.478;2023-07-29T14:15:16;25.80;99.90
12853;DHT22;6495;51.808;7.478;2023-07-29T14:17:45;25.70;99.90
12853;DHT22;6495;51.808;7.478;2023-07-29T14:20:14;25.60;99.90
12853;DHT22;6495;51.808;7.478;2023-07-29T14:22:44;25.40;99.90
12853;DHT22;6495;51.808;7.478;2023-07-29T14:25:17;25.20;99.90
12853;DHT22;6495;51.808;7.478;2023-07-29T14:27:52;24.90;99.90
12853;DHT22;6495;51.808;7.478;2023-07-29T14:30:21;24.60;99.90
12853;DHT22;6495;51.808;7.478;2023-07-29T14:32:49;24.30;99.90
12853;DHT22;6495;51.808;7.478;2023-07-29T14:35:19;24.10;99.90
12853;DHT22;6495;51.808;7.478;2023-07-29T14:37:48;23.80;99.90
12853;DHT22;6495;51.808;7.478;2023-07-29T14:40:16;23.60;99.90
12853;DHT22;6495;51.808;7.478;2023-07-29T14:42:44;23.30;99.90
12853;DHT22;6495;51.808;7.478;2023-07-29T14:45:12;23.20;99.90
12853;DHT22;6495;51.808;7.478;2023-07-29T14:47:41;23.10;99.90
12853;DHT22;6495;51.808;7.478;2023-07-29T14:50:10;23.00;99.90
12853;DHT22;6495;51.808;7.478;2023-07-29T14:52:40;22.90;99.90
12853;DHT22;6495;51.808;7.478;2023-07-29T14:55:12;22.80;99.90
12853;DHT22;6495;51.808;7.478;2023-07-29T14:57:40;22.80;99.90
12853;DHT22;6495;51.808;7.478;2023-07-29T15:00:11;22.70;99.90
12853;DHT22;6495;51.808;7.478;2023-07-29T15:02:40;22.70;99.90
12853;DHT22;6495;51.808;7.478;2023-07-29T15:05:09;22.60;99.90
12853;DHT22;6495;51.808;7.478;2023-07-29T15:07:37;22.60;99.90
12853;DHT22;6495;51.808;7.478;2023-07-29T15:10:07;22.60;99.90
12853;DHT22;6495;51.808;7.478;2023-07-29T15:12:36;22.50;99.90
12853;DHT22;6495;51.808;7.478;2023-07-29T15:15:05;22.50;99.90
12853;DHT22;6495;51.808;7.478;2023-07-29T15:17:37;22.50;99.90
12853;DHT22;6495;51.808;7.478;2023-07-29T15:20:06;22.50;99.90
12853;DHT22;6495;51.808;7.478;2023-07-29T15:22:36;22.50;99.90
12853;DHT22;6495;51.808;7.478;2023-07-29T15:25:07;22.40;99.90
12853;DHT22;6495;51.808;7.478;2023-07-29T15:27:37;22.40;99.90
12853;DHT22;6495;51.808;7.478;2023-07-29T15:30:07;22.40;99.90
12853;DHT22;6495;51.808;7.478;2023-07-29T15:32:36;22.40;99.90
12853;DHT22;6495;51.808;7.478;2023-07-29T15:35:05;22.40;99.90
12853;DHT22;6495;51.808;7.478;2023-07-29T15:37:34;22.40;99.90
12853;DHT22;6495;51.808;7.478;2023-07-29T15:40:03;22.40;99.90
12853;DHT22;6495;51.808;7.478;2023-07-29T15:42:35;22.50;99.90
12853;DHT22;6495;51.808;7.478;2023-07-29T15:45:03;22.50;99.90
12853;DHT22;6495;51.808;7.478;2023-07-29T15:47:32;22.60;99.90
12853;DHT22;6495;51.808;7.478;2023-07-29T15:50:01;22.60;99.90
12853;DHT22;6495;51.808;7.478;2023-07-29T15:52:29;22.70;99.90
12853;DHT22;6495;51.808;7.478;2023-07-29T15:54:58;22.80;99.90
12853;DHT22;6495;51.808;7.478;2023-07-29T15:57:26;22.90;99.90
12853;DHT22;6495;51.808;7.478;2023-07-29T15:59:58;23.00;99.90